createdAt,value
2019-05-23T00:00:34.866Z,90.25
2019-05-23T00:05:03.630Z,90.34
2019-05-23T00:09:23.660Z,90.02
2019-05-23T00:13:43.530Z,89.83
2019-05-23T00:17:48.786Z,89.78
2019-05-23T00:21:52.765Z,89.89
2019-05-23T00:25:55.476Z,89.92
2019-05-23T00:29:59.105Z,90.06
2019-05-23T00:34:02.860Z,89.82
2019-05-23T00:38:05.975Z,89.96
2019-05-23T00:42:07.837Z,89.65
2019-05-23T00:46:10.067Z,89.63
2019-05-23T00:50:13.026Z,89.50
2019-05-23T00:54:16.147Z,89.47
2019-05-23T00:58:19.404Z,89.28
2019-05-23T01:02:21.398Z,89.27
2019-05-23T01:06:23.818Z,89.30
2019-05-23T01:10:26.017Z,89.37
2019-05-23T01:14:28.856Z,89.45
2019-05-23T01:18:31.150Z,89.59
2019-05-23T01:22:33.300Z,89.74
2019-05-23T01:26:35.861Z,89.51
2019-05-23T01:30:43.465Z,89.25
2019-05-23T01:34:46.369Z,89.00
2019-05-23T01:38:48.288Z,89.09
2019-05-23T01:42:51.649Z,88.82
2019-05-23T01:46:53.709Z,88.52
2019-05-23T01:50:57.802Z,88.19
2019-05-23T01:55:00.559Z,87.83
2019-05-23T01:59:02.909Z,87.83
2019-05-23T02:03:05.009Z,87.29
2019-05-23T02:07:07.459Z,87.49
2019-05-23T02:11:10.854Z,87.31
2019-05-23T02:15:14.211Z,87.15
2019-05-23T02:19:16.649Z,87.21
2019-05-23T02:23:20.011Z,86.69
2019-05-23T02:27:23.370Z,86.68
2019-05-23T02:31:25.356Z,86.16
2019-05-23T02:35:27.410Z,85.84
2019-05-23T02:39:37.096Z,85.98
2019-05-23T02:43:44.855Z,85.51
2019-05-23T02:47:51.389Z,85.08
2019-05-23T02:51:56.744Z,85.11
2019-05-23T02:56:01.866Z,84.99
2019-05-23T03:00:19.233Z,84.82
2019-05-23T03:04:25.155Z,84.69
2019-05-23T03:08:29.097Z,83.89
2019-05-23T03:12:32.034Z,83.82
2019-05-23T03:16:36.392Z,83.54
2019-05-23T03:20:39.069Z,83.39
2019-05-23T03:24:42.335Z,83.88
2019-05-23T03:28:44.211Z,83.85
2019-05-23T03:32:50.153Z,84.56
2019-05-23T03:36:53.356Z,85.10
2019-05-23T03:41:00.622Z,84.84
2019-05-23T03:45:07.362Z,83.97
2019-05-23T03:49:11.583Z,83.68
2019-05-23T03:53:13.586Z,83.21
2019-05-23T03:57:17.085Z,83.08
2019-05-23T04:01:22.572Z,82.31
2019-05-23T04:05:25.927Z,82.44
2019-05-23T04:09:28.105Z,82.17
2019-05-23T04:13:30.741Z,81.69
2019-05-23T04:17:32.651Z,81.66
2019-05-23T04:21:34.507Z,81.51
2019-05-23T04:25:37.354Z,81.46
2019-05-23T04:29:39.286Z,80.82
2019-05-23T04:33:41.204Z,80.97
2019-05-23T04:37:45.042Z,81.11
2019-05-23T04:41:46.945Z,81.50
2019-05-23T04:45:48.889Z,81.64
2019-05-23T04:49:50.709Z,81.92
2019-05-23T04:53:54.850Z,80.92
2019-05-23T04:57:56.658Z,81.66
2019-05-23T05:01:59.018Z,81.41
2019-05-23T05:06:02.053Z,81.04
2019-05-23T05:10:04.269Z,80.73
2019-05-23T05:14:06.801Z,80.38
2019-05-23T05:18:09.426Z,81.13
2019-05-23T05:22:11.369Z,80.97
2019-05-23T05:26:20.532Z,81.56
2019-05-23T05:30:23.185Z,81.70
2019-05-23T05:34:25.119Z,81.75
2019-05-23T05:38:28.981Z,81.69
2019-05-23T05:42:32.473Z,81.53
2019-05-23T05:46:34.601Z,81.53
2019-05-23T05:50:36.742Z,81.11
2019-05-23T05:54:38.611Z,80.94
2019-05-23T05:58:40.387Z,80.03
2019-05-23T06:02:42.938Z,79.96
2019-05-23T06:06:52.389Z,80.23
2019-05-23T06:10:54.770Z,80.19
2019-05-23T06:14:56.708Z,80.52
2019-05-23T06:18:58.891Z,80.87
2019-05-23T06:23:01.319Z,80.99
2019-05-23T06:27:04.065Z,81.55
2019-05-23T06:31:06.579Z,81.54
2019-05-23T06:35:08.829Z,81.94
2019-05-23T06:39:12.595Z,81.99
2019-05-23T06:43:14.713Z,82.03
2019-05-23T06:47:17.829Z,81.87
2019-05-23T06:51:20.230Z,81.25
2019-05-23T06:55:22.166Z,80.92
2019-05-23T06:59:24.150Z,81.27
2019-05-23T07:03:41.460Z,81.13
2019-05-23T07:07:32.641Z,80.55
2019-05-23T07:11:34.550Z,80.14
2019-05-23T07:15:36.346Z,80.48
2019-05-23T07:19:38.085Z,79.59
2019-05-23T07:23:40.037Z,79.32
2019-05-23T07:27:42.719Z,78.99
2019-05-23T07:31:44.783Z,78.16
2019-05-23T07:35:46.646Z,77.21
2019-05-23T07:39:49.418Z,77.94
2019-05-23T07:43:52.163Z,77.03
2019-05-23T07:47:54.663Z,76.73
2019-05-23T07:51:56.404Z,77.10
2019-05-23T07:56:00.087Z,76.36
2019-05-23T08:00:04.066Z,76.33
2019-05-23T08:04:20.709Z,76.17
2019-05-23T08:08:10.199Z,76.57
2019-05-23T08:12:12.183Z,76.50
2019-05-23T08:16:15.109Z,75.92
2019-05-23T08:20:18.409Z,75.42
2019-05-23T08:24:20.447Z,74.32
2019-05-23T08:28:23.307Z,73.56
2019-05-23T08:32:25.159Z,73.44
2019-05-23T08:36:27.036Z,72.02
2019-05-23T08:40:39.644Z,71.47
2019-05-23T08:44:41.700Z,72.60
2019-05-23T08:48:44.195Z,71.34
2019-05-23T08:52:46.403Z,71.99
2019-05-23T08:56:48.150Z,72.06
2019-05-23T09:00:50.309Z,72.87
2019-05-23T09:05:04.225Z,72.86
2019-05-23T09:08:56.658Z,72.58
2019-05-23T09:13:02.870Z,72.74
2019-05-23T09:17:06.081Z,73.01
2019-05-23T09:21:09.064Z,72.58
2019-05-23T09:25:11.772Z,72.49
2019-05-23T09:29:14.318Z,73.01
2019-05-23T09:33:16.865Z,72.13
2019-05-23T09:37:19.451Z,72.64
2019-05-23T09:41:21.687Z,72.62
2019-05-23T09:45:23.907Z,72.80
2019-05-23T09:49:26.151Z,72.71
2019-05-23T09:53:28.575Z,73.06
2019-05-23T09:57:31.231Z,72.83
2019-05-23T10:01:33.428Z,73.11
2019-05-23T10:05:43.405Z,73.37
2019-05-23T10:09:41.275Z,75.25
2019-05-23T10:13:43.385Z,76.03
2019-05-23T10:17:45.705Z,76.15
2019-05-23T10:21:47.907Z,76.22
2019-05-23T10:25:50.077Z,72.96
2019-05-23T10:29:52.395Z,67.92
2019-05-23T10:33:54.350Z,66.33
2019-05-23T10:37:56.540Z,66.16
2019-05-23T10:41:59.813Z,65.96
2019-05-23T10:46:02.075Z,68.35
2019-05-23T10:50:08.162Z,68.31
2019-05-23T10:54:10.467Z,69.70
2019-05-23T10:58:13.369Z,70.03
2019-05-23T11:02:16.337Z,70.46
2019-05-23T11:06:18.624Z,70.10
2019-05-23T11:10:22.165Z,69.89
2019-05-23T11:14:24.559Z,69.30
2019-05-23T11:18:26.653Z,69.90
2019-05-23T11:22:29.112Z,69.56
2019-05-23T11:26:31.125Z,68.29
2019-05-23T11:30:45.999Z,69.74
2019-05-23T11:34:48.085Z,70.56
2019-05-23T11:38:50.310Z,69.54
2019-05-23T11:42:52.948Z,70.24
2019-05-23T11:46:55.626Z,69.73
2019-05-23T11:50:59.170Z,69.74
2019-05-23T11:55:01.412Z,69.36
2019-05-23T11:59:05.124Z,68.97
2019-05-23T12:03:09.478Z,68.49
2019-05-23T12:07:22.229Z,67.49
2019-05-23T12:11:24.536Z,65.42
2019-05-23T12:15:28.751Z,65.69
2019-05-23T12:19:31.118Z,63.73
2019-05-23T12:23:33.375Z,63.26
2019-05-23T12:27:35.829Z,63.23
2019-05-23T12:31:38.156Z,62.54
2019-05-23T12:35:40.413Z,61.66
2019-05-23T12:39:43.630Z,60.02
2019-05-23T12:43:46.074Z,58.52
2019-05-23T12:47:56.654Z,60.14
2019-05-23T12:52:01.364Z,57.61
2019-05-23T12:56:04.204Z,56.10
2019-05-23T13:00:09.200Z,55.58
2019-05-23T13:04:11.803Z,57.33
2019-05-23T13:08:16.751Z,58.43
2019-05-23T13:12:19.247Z,59.71
2019-05-23T13:16:21.528Z,60.58
2019-05-23T13:20:24.249Z,60.25
2019-05-23T13:24:26.439Z,60.14
2019-05-23T13:28:28.850Z,59.87
2019-05-23T13:32:31.020Z,60.59
2019-05-23T13:36:33.439Z,59.26
2019-05-23T13:40:36.646Z,58.19
2019-05-23T13:44:39.294Z,57.39
2019-05-23T13:48:41.881Z,59.21
2019-05-23T13:52:45.712Z,59.74
2019-05-23T13:56:48.225Z,60.10
2019-05-23T14:00:50.705Z,60.27
2019-05-23T14:04:52.965Z,61.04
2019-05-23T14:08:56.284Z,59.90
2019-05-23T14:12:58.590Z,60.40
2019-05-23T14:17:18.347Z,61.02
2019-05-23T14:21:20.511Z,60.99
2019-05-23T14:25:23.438Z,60.70
2019-05-23T14:29:25.630Z,60.06
2019-05-23T14:33:47.043Z,60.17
2019-05-23T14:37:52.659Z,59.89
2019-05-23T14:42:00.586Z,58.74
2019-05-23T14:46:08.735Z,58.94
2019-05-23T14:50:32.255Z,57.77
2019-05-23T14:54:45.545Z,56.31
2019-05-23T14:58:48.414Z,55.83
2019-05-23T15:02:50.823Z,53.51
2019-05-23T15:06:53.008Z,49.29
2019-05-23T15:10:55.199Z,46.67
2019-05-23T15:14:57.402Z,52.55
2019-05-23T15:18:59.518Z,51.28
2019-05-23T15:23:01.518Z,51.63
2019-05-23T15:27:03.915Z,49.80
2019-05-23T15:31:06.461Z,47.10
2019-05-23T15:35:08.283Z,45.47
2019-05-23T15:39:11.027Z,46.28
2019-05-23T15:43:12.862Z,46.80
2019-05-23T15:47:14.943Z,45.90
2019-05-23T15:51:21.056Z,47.82
2019-05-23T15:55:45.169Z,51.86
2019-05-23T16:00:09.597Z,55.13
2019-05-23T16:04:13.848Z,57.38
2019-05-23T16:08:15.864Z,58.72
2019-05-23T16:12:18.016Z,60.37
2019-05-23T16:16:19.910Z,61.51
2019-05-23T16:20:22.347Z,62.22
2019-05-23T16:24:24.458Z,62.87
2019-05-23T16:28:26.558Z,62.82
2019-05-23T16:32:28.383Z,62.76
2019-05-23T16:36:30.817Z,64.26
2019-05-23T16:40:33.136Z,63.99
2019-05-23T16:44:35.280Z,64.24
2019-05-23T16:48:38.662Z,63.47
2019-05-23T16:52:41.162Z,63.66
2019-05-23T16:56:56.963Z,63.21
2019-05-23T17:01:20.334Z,62.08
2019-05-23T17:05:30.922Z,63.06
2019-05-23T17:10:06.911Z,61.53
2019-05-23T17:14:02.168Z,62.66
2019-05-23T17:18:32.647Z,63.30
2019-05-23T17:23:00.960Z,63.36
2019-05-23T17:27:08.805Z,63.83
2019-05-23T17:31:16.255Z,64.98
2019-05-23T17:35:18.612Z,65.65
2019-05-23T17:39:21.028Z,66.26
2019-05-23T17:43:23.388Z,65.66
2019-05-23T17:47:25.897Z,66.25
2019-05-23T17:51:28.263Z,66.64
2019-05-23T17:55:32.176Z,66.67
2019-05-23T17:59:34.388Z,66.42
2019-05-23T18:03:37.925Z,66.31
2019-05-23T18:07:41.845Z,66.80
2019-05-23T18:11:44.020Z,66.55
2019-05-23T18:15:46.247Z,66.59
2019-05-23T18:19:48.372Z,67.29
2019-05-23T18:23:50.812Z,67.25
2019-05-23T18:27:53.525Z,67.96
2019-05-23T18:31:56.231Z,68.02
2019-05-23T18:35:58.929Z,67.86
2019-05-23T18:40:01.136Z,68.22
2019-05-23T18:44:03.605Z,68.62
2019-05-23T18:48:08.558Z,69.34
2019-05-23T18:52:11.207Z,68.78
2019-05-23T18:56:13.422Z,68.79
2019-05-23T19:00:17.721Z,68.67
2019-05-23T19:04:20.785Z,68.07
2019-05-23T19:08:23.630Z,68.22
2019-05-23T19:12:26.259Z,68.25
2019-05-23T19:16:29.299Z,68.30
2019-05-23T19:20:31.863Z,68.46
2019-05-23T19:24:34.486Z,68.79
2019-05-23T19:28:37.440Z,69.01
2019-05-23T19:32:39.481Z,70.16
2019-05-23T19:36:41.922Z,69.21
2019-05-23T19:40:45.121Z,69.28
2019-05-23T19:44:47.337Z,68.92
2019-05-23T19:48:50.219Z,68.75
2019-05-23T19:52:52.726Z,69.38
2019-05-23T19:56:54.893Z,69.42
2019-05-23T20:00:57.243Z,70.00
2019-05-23T20:05:03.575Z,70.16
2019-05-23T20:09:11.237Z,70.50
2019-05-23T20:13:13.575Z,70.39
2019-05-23T20:17:16.123Z,70.67
2019-05-23T20:21:18.553Z,70.62
2019-05-23T20:25:20.782Z,70.83
2019-05-23T20:29:22.895Z,70.68
2019-05-23T20:33:26.051Z,70.89
2019-05-23T20:37:30.338Z,70.76
2019-05-23T20:41:32.669Z,70.71
2019-05-23T20:45:35.072Z,70.51
2019-05-23T20:49:37.468Z,70.53
2019-05-23T20:53:39.567Z,70.34
2019-05-23T20:57:41.780Z,70.29
2019-05-23T21:01:44.489Z,70.37
2019-05-23T21:05:47.023Z,70.63
2019-05-23T21:09:49.261Z,70.97
2019-05-23T21:13:51.719Z,71.20
2019-05-23T21:17:53.878Z,70.98
2019-05-23T21:21:56.059Z,70.94
2019-05-23T21:26:02.598Z,71.32
2019-05-23T21:30:05.056Z,71.56
2019-05-23T21:34:07.670Z,71.19
2019-05-23T21:38:10.233Z,71.09
2019-05-23T21:42:12.754Z,71.66
2019-05-23T21:46:15.324Z,71.62
2019-05-23T21:50:17.532Z,70.87
2019-05-23T21:54:19.964Z,70.76
2019-05-23T21:58:21.984Z,69.88
2019-05-23T22:02:30.507Z,69.17
2019-05-23T22:06:33.842Z,68.42
2019-05-23T22:10:37.685Z,68.24
2019-05-23T22:14:39.837Z,66.79
2019-05-23T22:18:42.045Z,65.75
2019-05-23T22:22:44.187Z,65.41
2019-05-23T22:26:46.419Z,64.55
2019-05-23T22:30:48.615Z,64.84
2019-05-23T22:35:01.455Z,64.90
2019-05-23T22:39:03.765Z,65.18
2019-05-23T22:43:20.197Z,65.32
2019-05-23T22:47:09.749Z,65.51
2019-05-23T22:51:11.756Z,65.08
2019-05-23T22:55:14.004Z,65.07
2019-05-23T22:59:16.132Z,64.56
2019-05-23T23:03:18.387Z,65.32
2019-05-23T23:07:20.662Z,65.42
2019-05-23T23:11:23.201Z,65.50
2019-05-23T23:15:28.001Z,65.16
2019-05-23T23:19:30.317Z,65.34
2019-05-23T23:23:32.476Z,64.94
2019-05-23T23:27:34.758Z,64.45
2019-05-23T23:31:38.023Z,64.73
2019-05-23T23:35:40.104Z,64.68
2019-05-23T23:39:42.295Z,63.97
2019-05-23T23:43:58.871Z,65.06
2019-05-23T23:48:05.982Z,64.05
2019-05-23T23:52:25.948Z,63.82
2019-05-23T23:56:46.053Z,63.72
